createdAt,value
2017-01-05T00:00:35.812Z,99.95
2017-01-05T00:01:17.144Z,99.76
2017-01-05T00:01:58.971Z,99.76
2017-01-05T00:02:40.298Z,99.48
2017-01-05T00:03:21.784Z,99.99
2017-01-05T00:04:02.785Z,99.85
2017-01-05T00:04:44.359Z,99.95
2017-01-05T00:06:39.033Z,99.85
2017-01-05T00:07:20.959Z,99.99
2017-01-05T00:08:02.290Z,99.99
2017-01-05T00:08:43.767Z,99.99
2017-01-05T00:09:25.360Z,99.99
2017-01-05T00:10:07.207Z,99.99
2017-01-05T00:10:48.588Z,99.85
2017-01-05T00:12:37.918Z,99.76
2017-01-05T00:14:32.651Z,99.99
2017-01-05T00:15:14.141Z,99.99
2017-01-05T00:15:55.639Z,99.99
2017-01-05T00:16:37.168Z,99.99
2017-01-05T00:18:37.068Z,99.99
2017-01-05T00:19:18.314Z,99.95
2017-01-05T00:20:00.199Z,99.99
2017-01-05T00:20:41.812Z,99.99
2017-01-05T00:21:23.238Z,99.99
2017-01-05T00:22:04.908Z,99.99
2017-01-05T00:22:46.456Z,99.99
2017-01-05T00:24:41.166Z,99.99
2017-01-05T00:25:22.908Z,99.99
2017-01-05T00:27:43.471Z,99.99
2017-01-05T00:29:38.182Z,99.99
2017-01-05T00:30:19.889Z,99.99
2017-01-05T00:31:01.613Z,99.99
2017-01-05T00:31:43.443Z,99.99
2017-01-05T00:33:58.611Z,99.99
2017-01-05T00:34:40.331Z,99.99
2017-01-05T00:35:22.005Z,99.99
2017-01-05T00:36:03.401Z,99.99
2017-01-05T00:37:57.936Z,99.99
2017-01-05T00:38:39.691Z,99.99
2017-01-05T00:39:21.293Z,99.99
2017-01-05T00:40:02.890Z,99.99
2017-01-05T00:40:44.670Z,99.99
2017-01-05T00:42:39.261Z,99.99
2017-01-05T00:44:39.306Z,99.99
2017-01-05T00:45:20.846Z,99.99
2017-01-05T00:47:20.984Z,99.99
2017-01-05T00:48:02.545Z,99.99
2017-01-05T00:48:43.921Z,99.99
2017-01-05T00:49:25.468Z,99.99
2017-01-05T00:51:46.032Z,99.99
2017-01-05T00:52:27.399Z,99.99
2017-01-05T00:53:08.892Z,99.99
2017-01-05T00:53:50.665Z,99.99
2017-01-05T00:54:32.439Z,99.99
2017-01-05T00:55:13.934Z,99.99
2017-01-05T00:55:55.637Z,99.99
2017-01-05T00:56:37.463Z,99.99
2017-01-05T00:58:58.078Z,99.99
2017-01-05T00:59:39.392Z,99.99
2017-01-05T01:00:20.576Z,99.99
2017-01-05T01:01:01.536Z,99.99
2017-01-05T01:01:43.094Z,99.99
2017-01-05T01:02:24.624Z,99.99
2017-01-05T01:04:19.189Z,99.99
2017-01-05T01:05:00.877Z,99.99
2017-01-05T01:05:41.830Z,99.99
2017-01-05T01:06:22.971Z,99.99
2017-01-05T01:07:04.130Z,99.99
2017-01-05T01:07:45.450Z,99.99
2017-01-05T01:08:26.518Z,99.99
2017-01-05T01:09:07.496Z,99.99
2017-01-05T01:11:27.833Z,99.99
2017-01-05T01:12:09.047Z,99.99
2017-01-05T01:12:50.830Z,99.99
2017-01-05T01:13:32.378Z,99.99
2017-01-05T01:14:13.965Z,99.99
2017-01-05T01:14:55.297Z,99.99
2017-01-05T01:15:36.675Z,99.99
2017-01-05T01:17:36.689Z,99.99
2017-01-05T01:18:18.213Z,99.99
2017-01-05T01:19:00.057Z,99.99
2017-01-05T01:19:41.326Z,99.99
2017-01-05T01:20:22.010Z,99.99
2017-01-05T01:21:03.153Z,99.99
2017-01-05T01:21:44.171Z,99.99
2017-01-05T01:22:24.743Z,99.99
2017-01-05T01:23:05.322Z,99.99
2017-01-05T01:23:45.988Z,99.99
2017-01-05T01:24:26.602Z,99.99
2017-01-05T01:25:07.207Z,99.99
2017-01-05T01:27:27.138Z,99.99
2017-01-05T01:29:47.013Z,99.99
2017-01-05T01:30:28.654Z,99.99
2017-01-05T01:31:09.716Z,99.99
2017-01-05T01:31:51.403Z,99.99
2017-01-05T01:32:32.619Z,99.99
2017-01-05T01:33:13.907Z,99.99
2017-01-05T01:33:55.021Z,99.99
2017-01-05T01:34:36.722Z,99.99
2017-01-05T01:35:17.870Z,99.99
2017-01-05T01:35:59.295Z,99.99
2017-01-05T01:37:59.092Z,99.99
2017-01-05T01:38:40.608Z,99.99
2017-01-05T01:40:40.252Z,99.99
2017-01-05T01:41:21.397Z,99.99
2017-01-05T01:42:02.654Z,99.99
2017-01-05T01:42:44.238Z,99.99
2017-01-05T01:44:44.047Z,99.99
2017-01-05T01:45:24.754Z,99.99
2017-01-05T01:46:05.667Z,99.99
2017-01-05T01:46:46.876Z,99.99
2017-01-05T01:47:28.401Z,99.99
2017-01-05T01:48:10.021Z,99.99
2017-01-05T01:48:51.101Z,99.99
2017-01-05T01:49:32.146Z,99.99
2017-01-05T01:50:13.282Z,99.99
2017-01-05T01:50:54.408Z,99.99
2017-01-05T01:51:35.597Z,99.99
2017-01-05T01:52:16.615Z,99.99
2017-01-05T01:52:57.432Z,99.99
2017-01-05T01:53:38.142Z,99.99
2017-01-05T01:54:19.142Z,99.99
2017-01-05T01:55:00.057Z,99.99
2017-01-05T01:55:40.937Z,99.99
2017-01-05T01:56:21.630Z,99.99
2017-01-05T01:57:02.990Z,99.99
2017-01-05T01:57:44.078Z,99.99
2017-01-05T01:58:25.522Z,99.99
2017-01-05T02:00:40.270Z,99.99
2017-01-05T02:01:20.936Z,99.99
2017-01-05T02:02:01.508Z,99.99
2017-01-05T02:02:42.101Z,99.99
2017-01-05T02:03:22.911Z,99.99
2017-01-05T02:04:03.738Z,99.99
2017-01-05T02:04:44.699Z,99.99
2017-01-05T02:05:25.638Z,99.99
2017-01-05T02:06:06.345Z,99.99
2017-01-05T02:06:47.417Z,99.99
2017-01-05T02:07:28.229Z,99.99
2017-01-05T02:09:48.006Z,99.99
2017-01-05T02:10:28.752Z,99.99
2017-01-05T02:11:09.285Z,99.99
2017-01-05T02:11:50.558Z,99.99
2017-01-05T02:12:31.287Z,99.99
2017-01-05T02:13:11.814Z,99.99
2017-01-05T02:13:52.337Z,99.99
2017-01-05T02:14:32.871Z,99.99
2017-01-05T02:15:13.400Z,99.99
2017-01-05T02:15:53.931Z,99.99
2017-01-05T02:16:34.460Z,99.99
2017-01-05T02:17:14.991Z,99.99
2017-01-05T02:17:55.518Z,99.99
2017-01-05T02:18:36.048Z,99.99
2017-01-05T02:19:16.587Z,99.99
2017-01-05T02:19:57.116Z,99.99
2017-01-05T02:20:37.653Z,99.99
2017-01-05T02:21:18.185Z,99.99
2017-01-05T02:21:58.720Z,99.99
2017-01-05T02:22:39.248Z,99.99
2017-01-05T02:23:19.786Z,99.99
2017-01-05T02:24:00.313Z,99.99
2017-01-05T02:24:40.846Z,99.99
2017-01-05T02:25:21.375Z,99.99
2017-01-05T02:26:01.908Z,99.99
2017-01-05T02:26:42.442Z,99.99
2017-01-05T02:27:22.977Z,99.99
2017-01-05T02:28:03.500Z,99.99
2017-01-05T02:28:44.035Z,99.99
2017-01-05T02:29:24.567Z,99.99
2017-01-05T02:30:05.096Z,99.99
2017-01-05T02:30:45.623Z,99.99
2017-01-05T02:31:26.163Z,99.99
2017-01-05T02:32:06.700Z,99.99
2017-01-05T02:32:47.227Z,99.99
2017-01-05T02:33:27.763Z,99.99
2017-01-05T02:34:08.299Z,99.99
2017-01-05T02:34:48.823Z,99.99
2017-01-05T02:35:29.360Z,99.99
2017-01-05T02:36:09.895Z,99.99
2017-01-05T02:36:50.430Z,99.99
2017-01-05T02:37:30.967Z,99.99
2017-01-05T02:38:11.501Z,99.99
2017-01-05T02:38:52.027Z,99.99
2017-01-05T02:39:32.560Z,99.99
2017-01-05T02:40:13.090Z,99.99
2017-01-05T02:40:53.611Z,99.99
2017-01-05T02:41:34.147Z,99.99
2017-01-05T02:42:14.678Z,99.99
2017-01-05T02:42:55.216Z,99.99
2017-01-05T02:43:35.749Z,99.99
2017-01-05T02:44:16.279Z,99.99
2017-01-05T02:44:56.813Z,99.99
2017-01-05T02:45:37.330Z,99.99
2017-01-05T02:46:17.868Z,99.99
2017-01-05T02:46:58.401Z,99.99
2017-01-05T02:47:38.930Z,99.99
2017-01-05T02:48:19.466Z,99.99
2017-01-05T02:48:59.999Z,99.99
2017-01-05T02:49:40.531Z,99.99
2017-01-05T02:50:21.061Z,99.99
2017-01-05T02:51:01.589Z,99.99
2017-01-05T02:51:42.126Z,99.99
2017-01-05T02:52:22.659Z,99.99
2017-01-05T02:53:03.191Z,99.99
2017-01-05T02:53:43.780Z,99.99
2017-01-05T02:54:24.315Z,99.99
2017-01-05T02:55:04.844Z,99.99
2017-01-05T02:55:45.372Z,99.99
2017-01-05T02:56:25.904Z,99.99
2017-01-05T02:57:06.438Z,99.99
2017-01-05T02:57:46.967Z,99.99
2017-01-05T02:58:27.488Z,99.99
2017-01-05T02:59:08.028Z,99.99
2017-01-05T02:59:48.558Z,99.99
2017-01-05T03:00:29.089Z,99.99
2017-01-05T03:01:09.619Z,99.99
2017-01-05T03:01:50.160Z,99.99
2017-01-05T03:02:30.690Z,99.99
2017-01-05T03:03:11.219Z,99.99
2017-01-05T03:03:51.749Z,99.99
2017-01-05T03:04:32.286Z,99.99
2017-01-05T03:05:12.821Z,99.99
2017-01-05T03:05:53.358Z,99.99
2017-01-05T03:06:33.890Z,99.99
2017-01-05T03:07:14.423Z,99.99
2017-01-05T03:07:54.953Z,99.99
2017-01-05T03:08:35.487Z,99.99
2017-01-05T03:09:16.020Z,99.99
2017-01-05T03:09:56.548Z,99.99
2017-01-05T03:10:37.085Z,99.99
2017-01-05T03:11:17.611Z,99.99
2017-01-05T03:11:58.140Z,99.99
2017-01-05T03:12:38.667Z,99.99
2017-01-05T03:13:19.198Z,99.99
2017-01-05T03:13:59.728Z,99.99
2017-01-05T03:14:40.263Z,99.99
2017-01-05T03:15:20.794Z,99.99
2017-01-05T03:16:01.335Z,99.99
2017-01-05T03:16:41.869Z,99.99
2017-01-05T03:17:22.398Z,99.99
2017-01-05T03:18:02.933Z,99.99
2017-01-05T03:18:43.460Z,99.99
2017-01-05T03:19:23.996Z,99.99
2017-01-05T03:20:04.530Z,99.99
2017-01-05T03:20:45.057Z,99.99
2017-01-05T03:21:25.585Z,99.99
2017-01-05T03:22:06.126Z,99.99
2017-01-05T03:22:46.663Z,99.99
2017-01-05T03:23:27.199Z,99.99
2017-01-05T03:24:07.732Z,99.99
2017-01-05T03:24:48.258Z,99.99
2017-01-05T03:25:28.799Z,99.99
2017-01-05T03:26:09.335Z,99.99
2017-01-05T03:26:49.864Z,99.99
2017-01-05T03:27:30.398Z,99.99
2017-01-05T03:28:10.928Z,99.99
2017-01-05T03:28:51.458Z,99.99
2017-01-05T03:29:31.987Z,99.99
2017-01-05T03:30:12.522Z,99.99
2017-01-05T03:30:53.055Z,99.99
2017-01-05T03:31:33.588Z,99.99
2017-01-05T03:32:14.119Z,99.99
2017-01-05T03:32:54.653Z,99.99
2017-01-05T03:33:35.191Z,99.99
2017-01-05T03:34:15.719Z,99.99
2017-01-05T03:34:56.254Z,99.99
2017-01-05T03:35:36.788Z,99.99
2017-01-05T03:36:17.321Z,99.99
2017-01-05T03:36:57.857Z,99.99
2017-01-05T03:37:38.396Z,99.99
2017-01-05T03:38:18.922Z,99.99
2017-01-05T03:38:59.457Z,99.99
2017-01-05T03:39:39.991Z,99.99
2017-01-05T03:40:20.523Z,99.99
2017-01-05T03:41:01.056Z,99.99
2017-01-05T03:41:41.587Z,99.99
2017-01-05T03:42:22.116Z,99.99
2017-01-05T03:43:02.645Z,99.99
2017-01-05T03:43:43.177Z,99.99
2017-01-05T03:44:23.711Z,99.99
2017-01-05T03:45:04.247Z,99.99
2017-01-05T03:45:44.777Z,99.99
2017-01-05T03:46:25.311Z,99.99
2017-01-05T03:47:05.845Z,99.99
2017-01-05T03:47:46.373Z,99.99
2017-01-05T03:48:26.918Z,99.99
2017-01-05T03:49:07.450Z,99.99
2017-01-05T03:49:48.018Z,99.99
2017-01-05T03:50:28.546Z,99.99
2017-01-05T03:51:09.071Z,99.99
2017-01-05T03:51:49.598Z,99.99
2017-01-05T03:52:30.127Z,99.99
2017-01-05T03:53:10.660Z,99.99
2017-01-05T03:53:51.190Z,99.99
2017-01-05T03:54:31.724Z,99.99
2017-01-05T03:55:12.253Z,99.99
2017-01-05T03:55:52.774Z,99.99
2017-01-05T03:56:33.303Z,99.99
2017-01-05T03:57:13.834Z,99.99
2017-01-05T03:57:54.364Z,99.99
2017-01-05T03:58:34.891Z,99.99
2017-01-05T03:59:15.423Z,99.99
2017-01-05T03:59:55.950Z,99.99
2017-01-05T04:00:36.478Z,99.99
2017-01-05T04:01:17.007Z,99.99
2017-01-05T04:01:57.531Z,99.99
2017-01-05T04:02:38.059Z,99.99
2017-01-05T04:03:18.606Z,99.99
2017-01-05T04:03:59.126Z,99.99
2017-01-05T04:04:39.662Z,99.99
2017-01-05T04:05:20.183Z,99.99
2017-01-05T04:06:00.725Z,99.99
2017-01-05T04:06:41.248Z,99.99
2017-01-05T04:07:21.780Z,99.99
2017-01-05T04:08:02.312Z,99.99
2017-01-05T04:08:42.834Z,99.99
2017-01-05T04:09:23.366Z,99.99
2017-01-05T04:10:03.899Z,99.99
2017-01-05T04:10:44.432Z,99.99
2017-01-05T04:11:24.963Z,99.99
2017-01-05T04:12:05.495Z,99.99
2017-01-05T04:12:46.018Z,99.99
2017-01-05T04:13:26.552Z,99.99
2017-01-05T04:14:07.083Z,99.99
2017-01-05T04:14:47.616Z,99.99
2017-01-05T04:15:28.139Z,99.99
2017-01-05T04:16:08.668Z,99.99
2017-01-05T04:16:49.205Z,99.99
2017-01-05T04:17:29.736Z,99.99
2017-01-05T04:18:10.261Z,99.99
2017-01-05T04:18:50.791Z,99.99
2017-01-05T04:19:31.320Z,99.99
2017-01-05T04:20:11.856Z,99.99
2017-01-05T04:20:52.389Z,99.99
2017-01-05T04:21:32.918Z,99.99
2017-01-05T04:22:13.449Z,99.99
2017-01-05T04:22:53.979Z,99.99
2017-01-05T04:23:34.509Z,99.99
2017-01-05T04:24:15.040Z,99.99
2017-01-05T04:24:55.575Z,99.99
2017-01-05T04:25:36.097Z,99.99
2017-01-05T04:26:16.630Z,99.99
2017-01-05T04:26:57.156Z,99.99
2017-01-05T04:27:37.694Z,99.99
2017-01-05T04:28:18.221Z,99.99
2017-01-05T04:28:58.746Z,99.99
2017-01-05T04:29:39.275Z,99.99
2017-01-05T04:30:19.808Z,99.99
2017-01-05T04:31:00.347Z,99.99
2017-01-05T04:31:40.869Z,99.99
2017-01-05T04:32:21.398Z,99.99
2017-01-05T04:33:01.928Z,99.99
2017-01-05T04:33:42.462Z,99.99
2017-01-05T04:34:22.989Z,99.99
2017-01-05T04:35:03.507Z,99.99
2017-01-05T04:35:44.091Z,99.99
2017-01-05T04:36:24.622Z,99.99
2017-01-05T04:37:05.152Z,99.99
2017-01-05T04:37:45.682Z,99.99
2017-01-05T04:38:26.214Z,99.99
2017-01-05T04:39:06.743Z,99.99
2017-01-05T04:39:47.277Z,99.99
2017-01-05T04:40:27.811Z,99.99
2017-01-05T04:41:08.340Z,99.99
2017-01-05T04:41:48.870Z,99.99
2017-01-05T04:42:29.404Z,99.99
2017-01-05T04:43:09.941Z,99.99
2017-01-05T04:43:50.500Z,99.99
2017-01-05T04:44:31.035Z,99.99
2017-01-05T04:45:11.560Z,99.99
2017-01-05T04:45:52.092Z,99.99
2017-01-05T04:46:32.617Z,99.99
2017-01-05T04:47:13.150Z,99.99
2017-01-05T04:47:53.681Z,99.99
2017-01-05T04:48:34.208Z,99.99
2017-01-05T04:49:14.724Z,99.99
2017-01-05T04:49:55.256Z,99.99
2017-01-05T04:50:35.789Z,99.99
2017-01-05T04:51:16.317Z,99.99
2017-01-05T04:51:56.844Z,99.99
2017-01-05T04:52:37.372Z,99.99
2017-01-05T04:53:17.902Z,99.99
2017-01-05T04:54:01.327Z,99.99
2017-01-05T04:54:41.864Z,99.99
2017-01-05T04:55:22.401Z,99.99
2017-01-05T04:56:02.951Z,99.99
2017-01-05T04:56:43.483Z,99.99
2017-01-05T04:57:24.011Z,99.99
2017-01-05T04:58:04.556Z,99.99
2017-01-05T04:58:45.079Z,99.99
2017-01-05T04:59:25.610Z,99.99
2017-01-05T05:00:06.135Z,99.99
2017-01-05T05:00:46.664Z,99.99
2017-01-05T05:01:27.191Z,99.99
2017-01-05T05:02:07.730Z,99.99
2017-01-05T05:02:48.265Z,99.99
2017-01-05T05:03:28.793Z,99.99
2017-01-05T05:04:09.321Z,99.99
2017-01-05T05:04:49.854Z,99.99
2017-01-05T05:05:30.387Z,99.99
2017-01-05T05:06:10.922Z,99.99
2017-01-05T05:06:51.454Z,99.99
2017-01-05T05:07:31.986Z,99.99
2017-01-05T05:08:12.521Z,99.99
2017-01-05T05:08:53.049Z,99.99
2017-01-05T05:09:33.581Z,99.99
2017-01-05T05:10:14.115Z,99.99
2017-01-05T05:10:54.641Z,99.99
2017-01-05T05:11:35.177Z,99.99
2017-01-05T05:12:15.703Z,99.99
2017-01-05T05:12:56.239Z,99.99
2017-01-05T05:13:36.770Z,99.99
2017-01-05T05:14:17.294Z,99.99
2017-01-05T05:14:57.826Z,99.99
2017-01-05T05:15:38.372Z,99.99
2017-01-05T05:16:18.899Z,99.99
2017-01-05T05:16:59.428Z,99.99
2017-01-05T05:17:39.963Z,99.99
2017-01-05T05:18:20.496Z,99.99
2017-01-05T05:19:01.027Z,99.99
2017-01-05T05:19:41.566Z,99.99
2017-01-05T05:20:22.097Z,99.99
2017-01-05T05:21:02.633Z,99.99
2017-01-05T05:21:43.166Z,99.99
2017-01-05T05:22:23.697Z,99.99
2017-01-05T05:23:04.225Z,99.99
2017-01-05T05:23:44.757Z,99.99
2017-01-05T05:24:25.291Z,99.99
2017-01-05T05:25:05.824Z,99.99
2017-01-05T05:25:46.354Z,99.99
2017-01-05T05:26:26.879Z,99.99
2017-01-05T05:27:07.413Z,99.99
2017-01-05T05:27:47.957Z,99.99
2017-01-05T05:28:28.496Z,99.99
2017-01-05T05:29:09.028Z,99.99
2017-01-05T05:29:49.560Z,99.99
2017-01-05T05:30:30.091Z,99.99
2017-01-05T05:31:10.622Z,99.99
2017-01-05T05:31:51.161Z,99.99
2017-01-05T05:32:31.699Z,99.99
2017-01-05T05:33:12.235Z,99.99
2017-01-05T05:33:52.764Z,99.99
2017-01-05T05:34:33.298Z,99.99
2017-01-05T05:35:13.835Z,99.99
2017-01-05T05:35:54.363Z,99.99
2017-01-05T05:36:34.892Z,99.99
2017-01-05T05:37:15.427Z,99.99
2017-01-05T05:37:55.961Z,99.99
2017-01-05T05:38:36.496Z,99.99
2017-01-05T05:39:17.025Z,99.99
2017-01-05T05:39:57.556Z,99.99
2017-01-05T05:40:38.093Z,99.99
2017-01-05T05:41:18.629Z,99.99
2017-01-05T05:41:59.163Z,99.99
2017-01-05T05:42:39.707Z,99.99
2017-01-05T05:43:20.223Z,99.99
2017-01-05T05:44:00.746Z,99.99
2017-01-05T05:44:41.272Z,99.99
2017-01-05T05:45:21.807Z,99.99
2017-01-05T05:46:02.357Z,99.99
2017-01-05T05:46:42.893Z,99.99
2017-01-05T05:47:23.420Z,99.99
2017-01-05T05:48:03.956Z,99.99
2017-01-05T05:48:44.483Z,99.99
2017-01-05T05:49:24.995Z,99.99
2017-01-05T05:50:05.523Z,99.99
2017-01-05T05:50:46.058Z,99.99
2017-01-05T05:51:26.591Z,99.99
2017-01-05T05:52:07.124Z,99.99
2017-01-05T05:52:47.647Z,99.99
2017-01-05T05:53:28.180Z,99.99
2017-01-05T05:54:08.713Z,99.99
2017-01-05T05:54:49.243Z,99.99
2017-01-05T05:55:29.768Z,99.99
2017-01-05T05:56:10.297Z,99.99
2017-01-05T05:56:50.829Z,99.99
2017-01-05T05:57:31.364Z,99.99
2017-01-05T05:58:11.896Z,99.99
2017-01-05T05:58:52.423Z,99.99
2017-01-05T05:59:32.953Z,99.99
2017-01-05T06:00:13.479Z,99.99
2017-01-05T06:00:54.015Z,99.99
2017-01-05T06:01:34.547Z,99.99
2017-01-05T06:02:15.083Z,99.99
2017-01-05T06:02:55.618Z,99.99
2017-01-05T06:03:36.145Z,99.99
2017-01-05T06:04:16.682Z,99.99
2017-01-05T06:04:57.218Z,99.99
2017-01-05T06:05:37.754Z,99.99
2017-01-05T06:06:18.288Z,99.99
2017-01-05T06:06:58.807Z,99.99
2017-01-05T06:07:39.341Z,99.99
2017-01-05T06:08:19.871Z,99.99
2017-01-05T06:09:00.392Z,99.99
2017-01-05T06:09:40.941Z,99.99
2017-01-05T06:10:21.470Z,99.99
2017-01-05T06:11:02.005Z,99.99
2017-01-05T06:11:42.537Z,99.99
2017-01-05T06:12:23.071Z,99.99
2017-01-05T06:13:03.601Z,99.99
2017-01-05T06:13:44.194Z,99.99
2017-01-05T06:14:24.724Z,99.99
2017-01-05T06:15:05.258Z,99.99
2017-01-05T06:15:45.785Z,99.99
2017-01-05T06:16:26.313Z,99.99
2017-01-05T06:17:06.847Z,99.99
2017-01-05T06:17:47.378Z,99.99
2017-01-05T06:18:27.911Z,99.99
2017-01-05T06:19:08.437Z,99.99
2017-01-05T06:19:48.969Z,99.99
2017-01-05T06:20:29.514Z,99.99
2017-01-05T06:21:10.040Z,99.99
2017-01-05T06:21:50.577Z,99.99
2017-01-05T06:22:31.090Z,99.99
2017-01-05T06:23:11.612Z,99.99
2017-01-05T06:23:52.134Z,99.99
2017-01-05T06:24:32.662Z,99.99
2017-01-05T06:25:13.213Z,99.99
2017-01-05T06:25:53.746Z,99.99
2017-01-05T06:26:34.279Z,99.99
2017-01-05T06:27:14.816Z,99.99
2017-01-05T06:27:55.345Z,99.99
2017-01-05T06:28:35.878Z,99.99
2017-01-05T06:29:16.409Z,99.99
2017-01-05T06:29:56.930Z,99.99
2017-01-05T06:30:37.457Z,99.99
2017-01-05T06:31:17.981Z,99.99
2017-01-05T06:31:58.509Z,99.99
2017-01-05T06:32:39.048Z,99.99
2017-01-05T06:33:19.575Z,99.99
2017-01-05T06:34:00.103Z,99.99
2017-01-05T06:34:40.632Z,99.99
2017-01-05T06:35:21.175Z,99.99
2017-01-05T06:36:01.677Z,99.99
2017-01-05T06:36:42.202Z,99.99
2017-01-05T06:37:22.732Z,99.99
2017-01-05T06:38:03.265Z,99.99
2017-01-05T06:38:43.790Z,99.99
2017-01-05T06:39:24.319Z,99.99
2017-01-05T06:40:04.854Z,99.99
2017-01-05T06:40:45.387Z,99.99
2017-01-05T06:41:25.927Z,99.99
2017-01-05T06:42:06.464Z,99.99
2017-01-05T06:42:46.996Z,99.99
2017-01-05T06:43:27.534Z,99.99
2017-01-05T06:44:08.057Z,99.99
2017-01-05T06:44:48.593Z,99.99
2017-01-05T06:45:29.124Z,99.99
2017-01-05T06:46:09.639Z,99.99
2017-01-05T06:46:50.173Z,99.99
2017-01-05T06:47:30.717Z,99.99
2017-01-05T06:48:11.256Z,99.99
2017-01-05T06:48:51.788Z,99.99
2017-01-05T06:49:32.324Z,99.99
2017-01-05T06:50:12.858Z,99.99
2017-01-05T06:50:53.392Z,99.99
2017-01-05T06:51:33.929Z,99.99
2017-01-05T06:52:14.463Z,99.99
2017-01-05T06:52:54.997Z,99.99
2017-01-05T06:53:35.529Z,99.99
2017-01-05T06:54:16.058Z,99.99
2017-01-05T06:54:56.592Z,99.99
2017-01-05T06:55:37.124Z,99.99
2017-01-05T06:56:17.661Z,99.99
2017-01-05T06:56:58.194Z,99.99
2017-01-05T06:57:38.728Z,99.99
2017-01-05T06:58:19.255Z,99.99
2017-01-05T06:58:59.776Z,99.99
2017-01-05T06:59:40.305Z,99.99
2017-01-05T07:00:20.847Z,99.99
2017-01-05T07:01:01.380Z,99.99
2017-01-05T07:01:41.907Z,99.99
2017-01-05T07:02:22.443Z,99.99
2017-01-05T07:03:02.978Z,99.99
2017-01-05T07:03:43.517Z,99.99
2017-01-05T07:04:24.049Z,99.99
2017-01-05T07:05:04.579Z,99.99
2017-01-05T07:05:45.127Z,99.99
2017-01-05T07:06:25.657Z,99.99
2017-01-05T07:07:06.190Z,99.99
2017-01-05T07:07:46.716Z,99.99
2017-01-05T07:08:27.253Z,99.99
2017-01-05T07:09:07.782Z,99.99
2017-01-05T07:09:48.312Z,99.99
2017-01-05T07:10:28.847Z,99.99
2017-01-05T07:11:09.378Z,99.99
2017-01-05T07:11:49.909Z,99.99
2017-01-05T07:12:30.447Z,99.99
2017-01-05T07:13:10.982Z,99.99
2017-01-05T07:13:51.514Z,99.99
2017-01-05T07:14:32.043Z,99.99
2017-01-05T07:15:12.580Z,99.99
2017-01-05T07:15:53.106Z,99.99
2017-01-05T07:16:33.637Z,99.99
2017-01-05T07:17:14.176Z,99.99
2017-01-05T07:17:54.708Z,99.99
2017-01-05T07:18:35.239Z,99.99
2017-01-05T07:19:15.778Z,99.99
2017-01-05T07:19:56.310Z,99.99
2017-01-05T07:20:36.849Z,99.99
2017-01-05T07:21:17.384Z,99.99
2017-01-05T07:21:57.906Z,99.99
2017-01-05T07:22:38.441Z,99.99
2017-01-05T07:23:18.977Z,99.99
2017-01-05T07:23:59.514Z,99.99
2017-01-05T07:24:40.047Z,99.99
2017-01-05T07:25:20.573Z,99.99
2017-01-05T07:26:01.104Z,99.99
2017-01-05T07:26:41.639Z,99.99
2017-01-05T07:27:22.170Z,99.99
2017-01-05T07:28:02.702Z,99.99
2017-01-05T07:28:43.228Z,99.99
2017-01-05T07:29:23.753Z,99.99
2017-01-05T07:30:04.285Z,99.99
2017-01-05T07:30:44.820Z,99.99
2017-01-05T07:31:25.352Z,99.99
2017-01-05T07:32:05.882Z,99.99
2017-01-05T07:32:46.419Z,99.99
2017-01-05T07:33:26.947Z,99.99
2017-01-05T07:34:07.506Z,99.99
2017-01-05T07:34:48.042Z,99.99
2017-01-05T07:35:28.572Z,99.99
2017-01-05T07:36:09.106Z,99.99
2017-01-05T07:36:49.627Z,99.99
2017-01-05T07:37:30.161Z,99.99
2017-01-05T07:38:10.687Z,99.99
2017-01-05T07:38:51.221Z,99.99
2017-01-05T07:39:31.751Z,99.99
2017-01-05T07:40:12.282Z,99.99
2017-01-05T07:40:52.812Z,99.99
2017-01-05T07:41:33.403Z,99.99
2017-01-05T07:42:13.933Z,99.99
2017-01-05T07:42:54.469Z,99.99
2017-01-05T07:43:34.995Z,99.99
2017-01-05T07:44:15.529Z,99.99
2017-01-05T07:44:56.061Z,99.99
2017-01-05T07:45:36.589Z,99.99
2017-01-05T07:46:17.128Z,99.99
2017-01-05T07:46:57.666Z,99.99
2017-01-05T07:47:38.195Z,99.99
2017-01-05T07:48:18.747Z,99.99
2017-01-05T07:48:59.241Z,99.99
2017-01-05T07:49:39.768Z,99.99
2017-01-05T07:50:20.300Z,99.99
2017-01-05T07:51:00.833Z,99.99
2017-01-05T07:51:41.368Z,99.99
2017-01-05T07:52:21.893Z,99.99
2017-01-05T07:53:02.430Z,99.99
2017-01-05T07:53:42.957Z,99.99
2017-01-05T07:54:23.493Z,99.99
2017-01-05T07:55:04.020Z,99.99
2017-01-05T07:55:44.547Z,99.99
2017-01-05T07:56:25.073Z,99.99
2017-01-05T07:57:05.612Z,99.99
2017-01-05T07:57:46.146Z,99.99
2017-01-05T07:58:26.688Z,99.99
2017-01-05T07:59:07.215Z,99.99
2017-01-05T07:59:47.746Z,99.99
2017-01-05T08:00:28.274Z,99.99
2017-01-05T08:01:08.807Z,99.99
2017-01-05T08:01:49.340Z,99.99
2017-01-05T08:02:29.872Z,99.99
2017-01-05T08:03:10.399Z,99.99
2017-01-05T08:03:50.933Z,99.99
2017-01-05T08:04:31.467Z,99.99
2017-01-05T08:05:11.996Z,99.99
2017-01-05T08:05:52.521Z,99.99
2017-01-05T08:06:33.049Z,99.99
2017-01-05T08:07:13.577Z,99.99
2017-01-05T08:07:54.100Z,99.99
2017-01-05T08:08:34.636Z,99.99
2017-01-05T08:09:15.164Z,99.99
2017-01-05T08:09:55.701Z,99.99
2017-01-05T08:10:36.218Z,99.99
2017-01-05T08:11:16.753Z,99.99
2017-01-05T08:11:57.280Z,99.99
2017-01-05T08:12:37.806Z,99.99
2017-01-05T08:13:18.332Z,99.99
2017-01-05T08:13:58.868Z,99.99
2017-01-05T08:14:39.399Z,99.99
2017-01-05T08:15:19.927Z,99.99
2017-01-05T08:16:00.456Z,99.99
2017-01-05T08:16:40.994Z,99.99
2017-01-05T08:17:21.528Z,99.99
2017-01-05T08:18:02.104Z,99.99
2017-01-05T08:18:42.636Z,99.99
2017-01-05T08:19:23.165Z,99.99
2017-01-05T08:20:03.705Z,99.99
2017-01-05T08:20:44.234Z,99.99
2017-01-05T08:21:24.761Z,99.99
2017-01-05T08:22:05.291Z,99.99
2017-01-05T08:22:45.823Z,99.99
2017-01-05T08:23:26.356Z,99.99
2017-01-05T08:24:06.882Z,99.99
2017-01-05T08:24:47.412Z,99.99
2017-01-05T08:25:27.948Z,99.99
2017-01-05T08:26:08.480Z,99.99
2017-01-05T08:26:49.011Z,99.99
2017-01-05T08:27:29.543Z,99.99
2017-01-05T08:28:10.064Z,99.99
2017-01-05T08:28:50.615Z,99.99
2017-01-05T08:29:31.137Z,99.99
2017-01-05T08:30:11.669Z,99.99
2017-01-05T08:30:52.202Z,99.99
2017-01-05T08:31:32.738Z,99.99
2017-01-05T08:32:13.267Z,99.99
2017-01-05T08:32:53.795Z,99.99
2017-01-05T08:33:34.333Z,99.99
2017-01-05T08:34:14.864Z,99.99
2017-01-05T08:34:55.396Z,99.99
2017-01-05T08:35:35.940Z,99.99
2017-01-05T08:36:16.468Z,99.99
2017-01-05T08:36:56.999Z,99.99
2017-01-05T08:37:37.532Z,99.99
2017-01-05T08:38:18.053Z,99.99
2017-01-05T08:38:58.591Z,99.99
2017-01-05T08:39:39.119Z,99.99
2017-01-05T08:40:19.660Z,99.99
2017-01-05T08:41:00.188Z,99.99
2017-01-05T08:41:40.723Z,99.99
2017-01-05T08:42:21.255Z,99.99
2017-01-05T08:43:01.794Z,99.99
2017-01-05T08:43:42.325Z,99.99
2017-01-05T08:44:22.855Z,99.99
2017-01-05T08:45:03.386Z,99.99
2017-01-05T08:45:43.917Z,99.99
2017-01-05T08:46:24.445Z,99.99
2017-01-05T08:47:04.985Z,99.99
2017-01-05T08:47:45.517Z,99.99
2017-01-05T08:48:26.050Z,99.99
2017-01-05T08:49:06.584Z,99.99
2017-01-05T08:49:47.119Z,99.99
2017-01-05T08:50:27.653Z,99.99
2017-01-05T08:51:08.181Z,99.99
2017-01-05T08:51:48.714Z,99.99
2017-01-05T08:52:29.252Z,99.99
2017-01-05T08:53:09.782Z,99.99
2017-01-05T08:53:50.311Z,99.99
2017-01-05T08:54:30.836Z,99.99
2017-01-05T08:55:11.373Z,99.99
2017-01-05T08:55:51.896Z,99.99
2017-01-05T08:56:32.426Z,99.99
2017-01-05T08:57:12.953Z,99.99
2017-01-05T08:57:53.489Z,99.99
2017-01-05T08:58:34.012Z,99.99
2017-01-05T08:59:14.551Z,99.99
2017-01-05T08:59:55.086Z,99.76
2017-01-05T09:00:35.621Z,99.76
2017-01-05T09:01:16.155Z,99.99
2017-01-05T09:01:56.686Z,99.76
2017-01-05T09:02:37.214Z,99.57
2017-01-05T09:03:17.773Z,99.76
2017-01-05T09:03:58.282Z,99.19
2017-01-05T09:04:38.815Z,98.86
2017-01-05T09:05:19.328Z,99.24
2017-01-05T09:05:59.862Z,98.86
2017-01-05T09:06:40.397Z,99.05
2017-01-05T09:07:20.933Z,98.58
2017-01-05T09:08:01.466Z,98.01
2017-01-05T09:08:41.994Z,97.92
2017-01-05T09:09:22.762Z,98.2
2017-01-05T09:10:03.518Z,97.44
2017-01-05T09:10:44.280Z,97.35
2017-01-05T09:11:25.117Z,97.4
2017-01-05T09:12:05.919Z,97.21
2017-01-05T09:12:46.401Z,96.92
2017-01-05T09:13:26.936Z,96.26
2017-01-05T09:14:07.467Z,96.36
2017-01-05T09:14:47.997Z,95.93
2017-01-05T09:15:28.528Z,94.79
2017-01-05T09:16:09.062Z,94.51
2017-01-05T09:16:49.596Z,93.7
2017-01-05T09:17:30.127Z,93.23